Time;durP1;ratioP1;P1;durP2;ratioP2;P2;SDS_P1;SDS_P2;PMS_P1;PMS_P2;Temp;Humidity;BMP_temperature;BMP_pressure;BME280_temperature;BME280_humidity;BME280_pressure;Samples;Min_cycle;Max_cycle;Signal;HPM_P1;HPM_P2
2021/10/03 00:00:31;;;;;;;6.03;3.08;;;;;;;;;;5030371;28;20056;-47
2021/10/03 00:02:58;;;;;;;5.18;3.10;;;;;;;;;;5030974;28;20045;-47
2021/10/03 00:05:26;;;;;;;4.90;2.95;;;;;;;;;;5030227;28;20049;-46
2021/10/03 00:07:55;;;;;;;3.60;2.63;;;;;;;;;;5030702;28;20123;-46
2021/10/03 00:10:23;;;;;;;4.28;3.00;;;;;;;;;;5030561;28;20046;-50
2021/10/03 00:12:50;;;;;;;5.15;3.20;;;;;;;;;;5029583;28;20061;-49
2021/10/03 00:15:18;;;;;;;3.95;2.90;;;;;;;;;;5030151;28;20038;-44
2021/10/03 00:17:45;;;;;;;4.18;2.90;;;;;;;;;;5031333;28;20448;-45
2021/10/03 00:20:12;;;;;;;4.63;2.65;;;;;;;;;;5031386;28;20087;-45
2021/10/03 00:22:39;;;;;;;4.30;2.72;;;;;;;;;;5030545;28;20041;-44
2021/10/03 00:25:08;;;;;;;5.75;2.88;;;;;;;;;;5031726;28;20133;-43
2021/10/03 00:27:35;;;;;;;4.30;2.60;;;;;;;;;;5032375;28;20085;-43
2021/10/03 00:30:02;;;;;;;4.93;2.58;;;;;;;;;;5031084;28;20046;-44
2021/10/03 00:32:29;;;;;;;6.07;2.90;;;;;;;;;;5029504;28;20125;-45
2021/10/03 00:34:56;;;;;;;6.60;2.88;;;;;;;;;;5029912;28;20136;-47
2021/10/03 00:37:23;;;;;;;4.45;2.80;;;;;;;;;;5030537;28;20502;-45
2021/10/03 00:39:50;;;;;;;4.90;3.00;;;;;;;;;;5030204;28;20087;-43
2021/10/03 00:42:17;;;;;;;6.50;3.15;;;;;;;;;;5030474;28;20500;-47
2021/10/03 00:44:44;;;;;;;4.70;3.08;;;;;;;;;;5030101;28;20042;-45
2021/10/03 00:47:11;;;;;;;4.97;2.55;;;;;;;;;;5029733;28;20073;-45
2021/10/03 00:49:38;;;;;;;4.82;3.13;;;;;;;;;;5030512;28;20133;-46
2021/10/03 00:52:06;;;;;;;4.57;3.10;;;;;;;;;;5030336;28;20046;-43
2021/10/03 00:54:33;;;;;;;4.32;2.85;;;;;;;;;;5029947;28;20042;-44
2021/10/03 00:57:00;;;;;;;3.83;2.45;;;;;;;;;;5042412;28;20041;-45
2021/10/03 00:59:27;;;;;;;3.80;2.70;;;;;;;;;;5044473;28;20037;-48
2021/10/03 01:01:54;;;;;;;4.45;2.60;;;;;;;;;;5029080;28;20517;-42
2021/10/03 01:04:21;;;;;;;4.10;2.67;;;;;;;;;;5031172;28;20045;-48
2021/10/03 01:06:48;;;;;;;3.53;2.50;;;;;;;;;;5033977;28;20063;-51
2021/10/03 01:09:14;;;;;;;4.82;2.50;;;;;;;;;;5033698;28;20100;-45
2021/10/03 01:11:41;;;;;;;3.78;2.80;;;;;;;;;;5033847;28;20038;-50
2021/10/03 01:14:08;;;;;;;6.13;2.60;;;;;;;;;;5033166;28;20225;-47
2021/10/03 01:16:35;;;;;;;4.55;2.50;;;;;;;;;;5033617;28;20128;-45
2021/10/03 01:19:03;;;;;;;4.22;2.60;;;;;;;;;;5033998;28;20503;-48
2021/10/03 01:21:30;;;;;;;3.65;2.40;;;;;;;;;;5033887;28;20080;-49
2021/10/03 01:23:57;;;;;;;4.00;2.70;;;;;;;;;;5032923;28;20041;-48
2021/10/03 01:26:24;;;;;;;4.50;2.40;;;;;;;;;;5033393;28;20136;-47
2021/10/03 01:28:53;;;;;;;3.60;2.63;;;;;;;;;;5032023;28;20483;-49
2021/10/03 01:31:20;;;;;;;4.50;2.60;;;;;;;;;;5033158;28;20069;-46
2021/10/03 01:33:47;;;;;;;4.53;2.50;;;;;;;;;;5032821;28;20076;-45
2021/10/03 01:36:14;;;;;;;5.88;2.60;;;;;;;;;;5033703;28;20061;-47
2021/10/03 01:38:41;;;;;;;3.97;2.58;;;;;;;;;;5033437;28;20068;-46
2021/10/03 01:41:08;;;;;;;3.30;2.20;;;;;;;;;;5032063;28;20045;-45
2021/10/03 01:43:35;;;;;;;4.25;2.55;;;;;;;;;;5014949;28;20057;-49
2021/10/03 01:46:02;;;;;;;4.53;2.83;;;;;;;;;;5018633;28;20099;-45
2021/10/03 01:48:46;;;;;;;5.35;2.92;;;;;;;;;;5031900;28;20057;-44
2021/10/03 01:51:14;;;;;;;4.03;2.42;;;;;;;;;;5033079;28;20144;-43
2021/10/03 01:53:52;;;;;;;5.07;2.75;;;;;;;;;;5031431;28;20494;-41
2021/10/03 01:56:19;;;;;;;4.68;2.55;;;;;;;;;;5031735;28;20141;-46
2021/10/03 01:58:49;;;;;;;3.22;2.17;;;;;;;;;;5031584;28;20519;-42
2021/10/03 02:01:18;;;;;;;4.43;2.50;;;;;;;;;;5033077;28;20144;-42
2021/10/03 02:03:45;;;;;;;5.53;2.85;;;;;;;;;;5032474;28;20045;-47
2021/10/03 02:06:12;;;;;;;6.40;4.20;;;;;;;;;;5031692;28;20049;-48
2021/10/03 02:08:39;;;;;;;3.83;2.78;;;;;;;;;;5032606;28;20111;-47
2021/10/03 02:11:06;;;;;;;4.65;2.80;;;;;;;;;;5031182;28;20041;-49
2021/10/03 02:13:33;;;;;;;4.60;2.42;;;;;;;;;;5032027;28;20543;-46
2021/10/03 02:16:03;;;;;;;4.50;2.80;;;;;;;;;;5031507;28;20136;-48
2021/10/03 02:18:34;;;;;;;3.95;2.67;;;;;;;;;;5032593;28;20069;-47
2021/10/03 02:21:02;;;;;;;5.72;2.75;;;;;;;;;;5031337;28;20037;-47
2021/10/03 02:23:29;;;;;;;3.40;2.22;;;;;;;;;;5032048;28;20046;-48
2021/10/03 02:25:56;;;;;;;5.95;2.47;;;;;;;;;;5031725;28;20065;-42
2021/10/03 02:28:24;;;;;;;4.05;2.90;;;;;;;;;;5032674;28;20252;-44
2021/10/03 02:30:52;;;;;;;4.65;3.10;;;;;;;;;;5032739;28;20132;-47
2021/10/03 02:33:20;;;;;;;4.25;2.35;;;;;;;;;;5032131;28;20047;-45
2021/10/03 02:35:47;;;;;;;4.20;2.85;;;;;;;;;;5031277;28;20584;-45
2021/10/03 02:38:16;;;;;;;3.75;2.75;;;;;;;;;;5032597;28;20463;-46
2021/10/03 02:40:44;;;;;;;3.08;2.20;;;;;;;;;;5032602;28;20041;-45
2021/10/03 02:43:12;;;;;;;4.32;2.50;;;;;;;;;;5031774;28;20132;-45
2021/10/03 02:45:41;;;;;;;4.35;2.70;;;;;;;;;;5032577;28;20502;-47
2021/10/03 02:48:08;;;;;;;6.20;2.80;;;;;;;;;;5032560;28;20305;-49
2021/10/03 02:50:35;;;;;;;4.53;2.35;;;;;;;;;;5031996;28;20065;-47
2021/10/03 02:53:05;;;;;;;4.30;3.00;;;;;;;;;;5031635;28;20055;-44
2021/10/03 02:55:33;;;;;;;4.65;2.50;;;;;;;;;;5031680;28;20065;-49
2021/10/03 02:57:59;;;;;;;4.22;2.60;;;;;;;;;;5014283;28;20040;-49
2021/10/03 03:00:26;;;;;;;6.80;2.63;;;;;;;;;;5032627;28;20045;-45
2021/10/03 03:02:53;;;;;;;3.65;2.40;;;;;;;;;;5031819;28;20107;-48
2021/10/03 03:05:20;;;;;;;3.38;2.50;;;;;;;;;;5031470;28;20073;-47
2021/10/03 03:07:47;;;;;;;4.63;2.95;;;;;;;;;;5031956;28;20441;-45
2021/10/03 03:10:13;;;;;;;4.03;2.90;;;;;;;;;;5032313;28;20483;-43
2021/10/03 03:12:40;;;;;;;4.47;3.00;;;;;;;;;;5031713;28;20432;-44
2021/10/03 03:15:08;;;;;;;5.30;2.90;;;;;;;;;;5030595;28;20517;-46
2021/10/03 03:17:35;;;;;;;3.90;2.70;;;;;;;;;;5031652;28;20129;-43
2021/10/03 03:20:04;;;;;;;4.32;2.58;;;;;;;;;;5030316;28;20517;-43
2021/10/03 03:22:31;;;;;;;3.75;2.70;;;;;;;;;;5031484;28;20394;-44
2021/10/03 03:24:58;;;;;;;3.70;2.83;;;;;;;;;;5030750;28;20446;-47
2021/10/03 03:27:24;;;;;;;4.38;2.58;;;;;;;;;;5031343;28;20553;-48
2021/10/03 03:29:51;;;;;;;4.97;2.67;;;;;;;;;;5031052;28;20138;-44
2021/10/03 03:32:18;;;;;;;4.13;2.63;;;;;;;;;;5031136;28;20473;-43
2021/10/03 03:34:45;;;;;;;4.18;2.90;;;;;;;;;;5030430;28;20045;-44
2021/10/03 03:37:11;;;;;;;6.80;2.67;;;;;;;;;;5030835;28;20041;-44
2021/10/03 03:39:38;;;;;;;4.38;2.75;;;;;;;;;;5030870;28;20128;-47
2021/10/03 03:42:05;;;;;;;4.38;2.60;;;;;;;;;;5029825;28;20049;-48
2021/10/03 03:44:32;;;;;;;5.60;2.75;;;;;;;;;;5031086;28;20499;-46
2021/10/03 03:46:59;;;;;;;6.53;2.78;;;;;;;;;;5031206;28;20053;-43
2021/10/03 03:49:27;;;;;;;5.15;3.00;;;;;;;;;;5031018;28;20061;-43
2021/10/03 03:51:54;;;;;;;4.40;2.88;;;;;;;;;;5031085;28;20069;-44
2021/10/03 03:54:20;;;;;;;5.35;2.70;;;;;;;;;;5013528;28;20038;-47
2021/10/03 03:56:47;;;;;;;4.30;2.85;;;;;;;;;;5031077;28;20080;-44
2021/10/03 03:59:14;;;;;;;3.92;2.63;;;;;;;;;;5030837;28;20120;-47
2021/10/03 04:01:41;;;;;;;5.55;2.88;;;;;;;;;;5031180;28;20499;-44
2021/10/03 04:04:09;;;;;;;5.50;2.78;;;;;;;;;;5030800;28;20077;-43
2021/10/03 04:06:36;;;;;;;4.38;3.00;;;;;;;;;;5030882;28;20050;-46
2021/10/03 04:09:03;;;;;;;4.90;2.90;;;;;;;;;;5030865;28;20491;-48
2021/10/03 04:11:30;;;;;;;4.88;2.83;;;;;;;;;;5030979;28;20049;-47
2021/10/03 04:13:57;;;;;;;4.22;2.95;;;;;;;;;;5030985;28;20069;-45
2021/10/03 04:16:23;;;;;;;4.65;2.92;;;;;;;;;;5031964;28;20419;-45
2021/10/03 04:18:50;;;;;;;3.58;2.47;;;;;;;;;;5031306;28;20406;-46
2021/10/03 04:21:17;;;;;;;6.38;2.80;;;;;;;;;;5031214;28;20052;-45
2021/10/03 04:23:45;;;;;;;3.72;2.40;;;;;;;;;;5014000;28;20042;-42
2021/10/03 04:26:12;;;;;;;4.00;2.50;;;;;;;;;;5014766;28;20064;-45
2021/10/03 04:28:39;;;;;;;5.53;2.85;;;;;;;;;;5031342;28;20332;-43
2021/10/03 04:31:06;;;;;;;4.55;2.95;;;;;;;;;;5030873;28;20088;-45
2021/10/03 04:33:32;;;;;;;4.50;2.60;;;;;;;;;;5030606;28;20045;-42
2021/10/03 04:35:59;;;;;;;5.45;3.10;;;;;;;;;;5031037;28;20099;-43
2021/10/03 04:38:26;;;;;;;4.57;2.95;;;;;;;;;;5031049;28;20132;-45
2021/10/03 04:40:53;;;;;;;4.68;2.95;;;;;;;;;;5034790;28;20079;-45
2021/10/03 04:43:19;;;;;;;5.47;3.58;;;;;;;;;;5034371;28;20136;-43
2021/10/03 04:45:46;;;;;;;6.00;4.07;;;;;;;;;;5039700;28;20379;-43
2021/10/03 04:48:13;;;;;;;5.97;4.05;;;;;;;;;;5034544;28;20128;-42
2021/10/03 04:50:40;;;;;;;5.53;3.60;;;;;;;;;;5034346;28;20107;-46
2021/10/03 04:53:07;;;;;;;7.90;3.35;;;;;;;;;;5034168;28;20523;-44
2021/10/03 04:55:34;;;;;;;4.57;3.15;;;;;;;;;;5034671;28;20125;-46
2021/10/03 04:58:01;;;;;;;7.38;3.17;;;;;;;;;;5033023;28;20136;-42
2021/10/03 05:00:28;;;;;;;4.72;2.80;;;;;;;;;;5034024;28;20071;-48
2021/10/03 05:02:55;;;;;;;5.25;3.08;;;;;;;;;;5034488;28;20049;-42
2021/10/03 05:05:22;;;;;;;3.78;2.50;;;;;;;;;;5034205;28;20045;-45
2021/10/03 05:07:49;;;;;;;4.03;2.80;;;;;;;;;;5033187;28;20050;-44
2021/10/03 05:10:16;;;;;;;4.78;3.00;;;;;;;;;;5033797;28;20136;-44
2021/10/03 05:12:42;;;;;;;4.35;3.40;;;;;;;;;;5034065;28;20038;-47
2021/10/03 05:15:09;;;;;;;4.25;2.90;;;;;;;;;;5033553;28;20119;-47
2021/10/03 05:17:36;;;;;;;4.25;2.78;;;;;;;;;;5033848;28;20044;-47
2021/10/03 05:20:03;;;;;;;6.03;2.90;;;;;;;;;;5033999;28;20056;-42
2021/10/03 05:22:30;;;;;;;4.55;2.58;;;;;;;;;;5033881;28;20506;-43
2021/10/03 05:24:57;;;;;;;4.00;2.80;;;;;;;;;;5033369;28;20470;-42
2021/10/03 05:27:24;;;;;;;4.80;3.10;;;;;;;;;;5033965;28;20045;-42
2021/10/03 05:29:50;;;;;;;4.70;3.22;;;;;;;;;;5033532;28;20167;-43
2021/10/03 05:32:17;;;;;;;5.00;3.08;;;;;;;;;;5033952;28;20046;-41
2021/10/03 05:34:44;;;;;;;8.00;3.00;;;;;;;;;;5033510;28;20048;-41
2021/10/03 05:37:11;;;;;;;3.75;2.50;;;;;;;;;;5033632;28;20044;-41
2021/10/03 05:39:38;;;;;;;3.65;2.40;;;;;;;;;;5033393;28;20100;-41
2021/10/03 05:42:05;;;;;;;4.03;2.55;;;;;;;;;;5033430;28;20111;-41
2021/10/03 05:44:32;;;;;;;4.13;2.55;;;;;;;;;;5033497;28;20073;-41
2021/10/03 05:46:59;;;;;;;3.72;2.17;;;;;;;;;;5033465;28;20088;-44
2021/10/03 05:49:25;;;;;;;4.65;2.58;;;;;;;;;;5033420;28;20049;-41
2021/10/03 05:51:52;;;;;;;4.40;2.78;;;;;;;;;;5033489;28;20045;-42
2021/10/03 05:54:19;;;;;;;3.85;2.60;;;;;;;;;;5033207;28;20072;-43
2021/10/03 05:56:46;;;;;;;3.85;2.70;;;;;;;;;;5031889;28;20048;-42
2021/10/03 05:59:13;;;;;;;4.85;3.15;;;;;;;;;;5033318;28;20368;-42
2021/10/03 06:01:40;;;;;;;4.50;2.88;;;;;;;;;;5033562;28;20542;-43
2021/10/03 06:04:08;;;;;;;3.90;2.60;;;;;;;;;;5034567;28;20041;-41
2021/10/03 06:06:34;;;;;;;4.10;2.65;;;;;;;;;;5033680;28;20034;-41
2021/10/03 06:09:01;;;;;;;3.35;2.35;;;;;;;;;;5033254;28;20069;-43
2021/10/03 06:11:28;;;;;;;3.45;2.55;;;;;;;;;;5033517;28;20431;-44
2021/10/03 06:13:57;;;;;;;4.30;2.53;;;;;;;;;;5033032;28;20099;-41
2021/10/03 06:16:24;;;;;;;7.45;2.90;;;;;;;;;;5033015;28;20095;-47
2021/10/03 06:18:51;;;;;;;3.85;2.58;;;;;;;;;;5031868;28;20046;-41
2021/10/03 06:21:18;;;;;;;3.85;2.50;;;;;;;;;;5033097;28;20046;-45
2021/10/03 06:23:45;;;;;;;4.25;2.60;;;;;;;;;;5033203;28;20053;-41
2021/10/03 06:26:12;;;;;;;4.97;3.00;;;;;;;;;;5033365;28;20088;-41
2021/10/03 06:28:39;;;;;;;4.22;2.83;;;;;;;;;;5033575;28;20053;-42
2021/10/03 06:31:07;;;;;;;4.88;2.80;;;;;;;;;;5033313;28;20299;-42
2021/10/03 06:33:34;;;;;;;5.90;2.70;;;;;;;;;;5032619;28;20099;-42
2021/10/03 06:36:01;;;;;;;4.35;2.78;;;;;;;;;;5033039;28;20107;-43
2021/10/03 06:38:28;;;;;;;5.90;3.33;;;;;;;;;;5032606;28;20043;-41
2021/10/03 06:40:55;;;;;;;4.65;2.50;;;;;;;;;;5032543;28;20521;-44
2021/10/03 06:43:21;;;;;;;4.68;2.90;;;;;;;;;;5032095;28;20045;-42
2021/10/03 06:45:48;;;;;;;5.25;2.70;;;;;;;;;;5032337;28;20041;-42
2021/10/03 06:48:16;;;;;;;6.00;2.80;;;;;;;;;;5032234;28;20048;-44
2021/10/03 06:50:43;;;;;;;4.70;2.80;;;;;;;;;;5032270;28;20510;-41
2021/10/03 06:53:10;;;;;;;4.82;2.78;;;;;;;;;;5031861;28;20037;-43
2021/10/03 06:55:36;;;;;;;4.15;2.60;;;;;;;;;;5032066;28;20562;-42
2021/10/03 06:58:03;;;;;;;4.55;2.45;;;;;;;;;;5032262;28;20526;-41
2021/10/03 07:00:30;;;;;;;5.07;2.60;;;;;;;;;;5032141;28;20045;-43
2021/10/03 07:02:57;;;;;;;3.75;2.50;;;;;;;;;;5032045;28;20096;-45
2021/10/03 07:05:24;;;;;;;4.80;2.60;;;;;;;;;;5031285;28;20049;-41
2021/10/03 07:07:51;;;;;;;3.83;2.38;;;;;;;;;;5032455;28;20087;-41
2021/10/03 07:10:18;;;;;;;4.60;2.42;;;;;;;;;;5032640;28;20099;-44
2021/10/03 07:12:45;;;;;;;3.42;2.40;;;;;;;;;;5031882;28;20473;-43
2021/10/03 07:15:11;;;;;;;3.95;2.33;;;;;;;;;;5031604;28;20132;-42
2021/10/03 07:17:38;;;;;;;4.65;2.78;;;;;;;;;;5031572;28;20134;-46
2021/10/03 07:20:06;;;;;;;3.70;2.42;;;;;;;;;;5031650;28;20046;-42
2021/10/03 07:22:32;;;;;;;3.92;2.20;;;;;;;;;;5031967;28;20061;-46
2021/10/03 07:24:59;;;;;;;5.53;2.97;;;;;;;;;;5031090;28;20095;-45
2021/10/03 07:27:26;;;;;;;3.45;2.45;;;;;;;;;;5031645;28;20046;-44
2021/10/03 07:29:54;;;;;;;3.42;2.25;;;;;;;;;;5031103;28;20137;-45
2021/10/03 07:32:21;;;;;;;3.78;2.42;;;;;;;;;;5031430;28;20128;-43
2021/10/03 07:34:53;;;;;;;4.38;2.22;;;;;;;;;;5029817;28;20049;-45
2021/10/03 07:37:20;;;;;;;4.97;2.95;;;;;;;;;;5013742;28;20360;-44
2021/10/03 07:39:47;;;;;;;5.22;3.08;;;;;;;;;;5031227;28;20495;-46
2021/10/03 07:42:14;;;;;;;5.43;3.28;;;;;;;;;;5031485;28;20073;-43
2021/10/03 07:44:40;;;;;;;4.15;2.70;;;;;;;;;;5031013;28;20048;-48
2021/10/03 07:47:07;;;;;;;5.35;2.80;;;;;;;;;;5031193;28;20092;-46
2021/10/03 07:49:34;;;;;;;5.32;2.85;;;;;;;;;;5030058;28;20055;-44
2021/10/03 07:52:01;;;;;;;5.45;2.70;;;;;;;;;;5031095;28;20049;-45
2021/10/03 07:54:28;;;;;;;4.30;2.80;;;;;;;;;;5030798;28;20125;-45
2021/10/03 07:56:54;;;;;;;4.03;2.40;;;;;;;;;;5031084;28;20463;-43
2021/10/03 07:59:21;;;;;;;5.55;2.55;;;;;;;;;;5030957;28;20041;-47
2021/10/03 08:01:48;;;;;;;4.22;2.28;;;;;;;;;;5039747;28;20436;-44
2021/10/03 08:04:15;;;;;;;3.80;2.40;;;;;;;;;;5049225;28;20049;-42
2021/10/03 08:06:42;;;;;;;3.60;2.67;;;;;;;;;;5050854;28;20106;-47
2021/10/03 08:09:09;;;;;;;8.15;4.40;;;;;;;;;;5044572;28;20491;-43
2021/10/03 08:11:35;;;;;;;3.03;2.13;;;;;;;;;;5030845;28;20052;-42
2021/10/03 08:14:02;;;;;;;4.20;2.15;;;;;;;;;;5032205;28;20033;-44
2021/10/03 08:16:29;;;;;;;4.78;2.20;;;;;;;;;;5034628;28;20053;-43
2021/10/03 08:18:58;;;;;;;3.90;2.38;;;;;;;;;;5034995;28;20044;-47
2021/10/03 08:21:26;;;;;;;6.32;2.40;;;;;;;;;;5034682;28;20037;-43
2021/10/03 08:23:53;;;;;;;5.63;2.75;;;;;;;;;;5034542;28;20053;-44
2021/10/03 08:26:20;;;;;;;5.22;3.22;;;;;;;;;;5033674;28;20045;-45
2021/10/03 08:28:47;;;;;;;14.63;10.65;;;;;;;;;;5034933;28;20133;-43
2021/10/03 08:31:14;;;;;;;11.60;8.82;;;;;;;;;;5035434;28;20124;-42
2021/10/03 08:33:41;;;;;;;10.93;7.47;;;;;;;;;;5034845;28;20133;-43
2021/10/03 08:36:08;;;;;;;8.15;5.22;;;;;;;;;;5035319;28;20038;-43
2021/10/03 08:38:35;;;;;;;3.95;3.03;;;;;;;;;;5034952;28;20165;-47
2021/10/03 08:41:02;;;;;;;4.60;2.33;;;;;;;;;;5034878;28;20045;-40
2021/10/03 08:43:32;;;;;;;6.80;3.08;;;;;;;;;;5034400;28;20115;-44
2021/10/03 08:46:15;;;;;;;7.35;2.83;;;;;;;;;;5034238;28;20399;-44
2021/10/03 08:48:42;;;;;;;4.13;2.95;;;;;;;;;;5034392;28;20220;-44
2021/10/03 08:51:09;;;;;;;4.32;2.38;;;;;;;;;;5034733;28;20053;-45
2021/10/03 08:53:36;;;;;;;5.00;2.67;;;;;;;;;;5032554;28;20060;-43
2021/10/03 08:56:03;;;;;;;5.75;3.47;;;;;;;;;;5034269;28;20033;-43
2021/10/03 08:58:31;;;;;;;7.90;2.97;;;;;;;;;;5033042;28;20436;-44
2021/10/03 09:00:58;;;;;;;4.55;2.50;;;;;;;;;;5034226;28;20118;-42
2021/10/03 09:03:25;;;;;;;4.47;2.53;;;;;;;;;;5034062;28;20087;-43
2021/10/03 09:05:53;;;;;;;4.88;2.40;;;;;;;;;;5034266;28;20570;-44
2021/10/03 09:08:24;;;;;;;5.28;2.35;;;;;;;;;;5034050;28;20076;-43
2021/10/03 09:10:53;;;;;;;3.70;2.40;;;;;;;;;;5036595;23;20042;-45
2021/10/03 09:13:22;;;;;;;5.57;2.92;;;;;;;;;;5033620;28;20038;-50
2021/10/03 09:16:08;;;;;;;4.90;2.67;;;;;;;;;;5034481;28;20417;-44
2021/10/03 09:18:36;;;;;;;9.40;3.65;;;;;;;;;;5018477;28;20476;-46
2021/10/03 09:21:03;;;;;;;7.53;3.75;;;;;;;;;;5014283;28;20048;-48
2021/10/03 09:23:30;;;;;;;4.03;2.45;;;;;;;;;;5013817;28;20050;-44
2021/10/03 09:25:58;;;;;;;3.63;2.08;;;;;;;;;;5014019;28;20054;-47
2021/10/03 09:28:30;;;;;;;3.40;2.28;;;;;;;;;;5014134;28;20141;-48
2021/10/03 09:31:05;;;;;;;6.00;2.43;;;;;;;;;;5013977;28;20060;-43
2021/10/03 09:33:38;;;;;;;2.80;1.90;;;;;;;;;;5012372;28;20053;-44
2021/10/03 09:36:05;;;;;;;3.97;1.85;;;;;;;;;;5014366;28;20049;-48
2021/10/03 09:38:41;;;;;;;5.18;1.77;;;;;;;;;;5014122;28;20053;-44
2021/10/03 09:41:11;;;;;;;2.40;1.70;;;;;;;;;;5014445;28;20072;-45
2021/10/03 09:43:39;;;;;;;3.00;1.90;;;;;;;;;;5012133;28;20054;-46
2021/10/03 09:46:06;;;;;;;2.75;1.70;;;;;;;;;;5014103;28;20053;-45
2021/10/03 09:48:46;;;;;;;3.05;1.92;;;;;;;;;;5013909;28;20057;-45
2021/10/03 09:51:13;;;;;;;6.75;4.28;;;;;;;;;;5012708;28;20050;-44
2021/10/03 09:53:41;;;;;;;3.53;2.20;;;;;;;;;;5013424;28;20115;-45
2021/10/03 09:56:09;;;;;;;4.88;2.80;;;;;;;;;;5013974;28;20088;-44
2021/10/03 09:58:37;;;;;;;3.30;2.45;;;;;;;;;;5013565;28;20062;-49
2021/10/03 10:01:04;;;;;;;3.25;2.22;;;;;;;;;;5013546;28;20042;-45
2021/10/03 10:03:31;;;;;;;2.92;2.20;;;;;;;;;;5012978;28;20499;-44
2021/10/03 10:05:58;;;;;;;2.65;1.73;;;;;;;;;;5012671;28;20077;-45
2021/10/03 10:08:24;;;;;;;4.13;2.42;;;;;;;;;;5013310;28;20109;-47
2021/10/03 10:10:53;;;;;;;3.83;2.50;;;;;;;;;;5013349;28;20494;-45
2021/10/03 10:13:22;;;;;;;3.88;2.58;;;;;;;;;;5012691;28;20061;-44
2021/10/03 10:15:49;;;;;;;3.10;2.05;;;;;;;;;;5013450;28;20460;-48
2021/10/03 10:18:21;;;;;;;4.55;2.53;;;;;;;;;;5012613;28;20037;-48
2021/10/03 10:20:48;;;;;;;3.17;2.10;;;;;;;;;;5013284;28;20052;-47
2021/10/03 10:23:15;;;;;;;4.25;2.40;;;;;;;;;;5012450;28;20052;-47
2021/10/03 10:25:42;;;;;;;4.05;1.73;;;;;;;;;;5013104;28;20085;-49
2021/10/03 10:28:11;;;;;;;5.05;2.83;;;;;;;;;;5013026;28;20073;-47
2021/10/03 10:30:58;;;;;;;3.17;2.40;;;;;;;;;;5012801;28;20177;-47
2021/10/03 10:33:25;;;;;;;4.00;2.08;;;;;;;;;;5012252;28;20073;-48
2021/10/03 10:36:11;;;;;;;3.80;2.00;;;;;;;;;;5012447;28;20037;-50
2021/10/03 10:38:38;;;;;;;4.25;2.10;;;;;;;;;;5012725;28;20041;-47
2021/10/03 10:41:25;;;;;;;2.97;2.05;;;;;;;;;;5012931;28;20064;-47
2021/10/03 10:43:52;;;;;;;3.63;1.80;;;;;;;;;;5012157;28;20575;-48
2021/10/03 10:46:37;;;;;;;3.63;1.90;;;;;;;;;;5012935;28;20052;-45
2021/10/03 10:49:22;;;;;;;3.50;1.85;;;;;;;;;;5012899;28;20526;-48
2021/10/03 10:52:09;;;;;;;6.35;2.35;;;;;;;;;;5012888;28;20049;-47
2021/10/03 10:54:36;;;;;;;5.82;3.70;;;;;;;;;;5011936;28;20042;-47
2021/10/03 10:57:09;;;;;;;3.08;2.10;;;;;;;;;;5012802;28;20076;-48
2021/10/03 10:59:55;;;;;;;4.28;2.83;;;;;;;;;;5012528;28;20108;-48
2021/10/03 11:02:40;;;;;;;4.72;2.72;;;;;;;;;;5011379;28;20487;-48
2021/10/03 11:05:26;;;;;;;2.50;1.80;;;;;;;;;;5012151;28;20048;-47
2021/10/03 11:08:05;;;;;;;2.53;1.92;;;;;;;;;;5012791;28;20425;-45
2021/10/03 11:10:51;;;;;;;7.30;1.92;;;;;;;;;;5012800;28;20489;-47
2021/10/03 11:13:37;;;;;;;4.55;2.13;;;;;;;;;;5012063;28;20050;-49
2021/10/03 11:16:19;;;;;;;3.33;1.90;;;;;;;;;;5012850;28;20049;-45
2021/10/03 11:18:50;;;;;;;2.60;1.75;;;;;;;;;;5012309;28;20038;-47
2021/10/03 11:21:20;;;;;;;2.65;1.83;;;;;;;;;;5012413;28;20046;-45
2021/10/03 11:23:47;;;;;;;2.60;1.60;;;;;;;;;;5011769;28;20076;-47
2021/10/03 11:26:14;;;;;;;2.25;1.58;;;;;;;;;;5012631;28;20052;-48
2021/10/03 11:28:51;;;;;;;4.38;1.90;;;;;;;;;;5012222;28;20056;-46
2021/10/03 11:31:37;;;;;;;2.95;1.70;;;;;;;;;;5012364;28;20038;-49
2021/10/03 11:34:05;;;;;;;3.70;1.60;;;;;;;;;;5011672;28;20046;-48
2021/10/03 11:36:32;;;;;;;3.97;2.00;;;;;;;;;;5012751;28;20045;-48
2021/10/03 11:39:01;;;;;;;2.17;1.50;;;;;;;;;;5012130;28;20092;-46
2021/10/03 11:41:28;;;;;;;2.92;1.73;;;;;;;;;;5012293;28;20129;-44
2021/10/03 11:43:55;;;;;;;4.20;2.10;;;;;;;;;;5011340;28;20069;-45
2021/10/03 11:46:22;;;;;;;3.08;1.58;;;;;;;;;;5012175;28;20050;-47
2021/10/03 11:48:50;;;;;;;2.03;1.60;;;;;;;;;;5012296;28;20447;-49
2021/10/03 11:51:16;;;;;;;2.65;1.88;;;;;;;;;;5012074;28;20124;-47
2021/10/03 11:53:49;;;;;;;2.53;1.77;;;;;;;;;;5011345;28;20132;-48
2021/10/03 11:56:19;;;;;;;3.03;2.05;;;;;;;;;;5011678;28;20507;-46
2021/10/03 11:58:46;;;;;;;1.75;1.58;;;;;;;;;;5011681;28;20436;-48
2021/10/03 12:01:13;;;;;;;3.92;1.60;;;;;;;;;;4994183;28;20052;-45
2021/10/03 12:03:50;;;;;;;3.30;1.80;;;;;;;;;;5011299;28;20153;-47
2021/10/03 12:06:17;;;;;;;2.28;1.40;;;;;;;;;;5012028;28;20046;-48
2021/10/03 12:08:46;;;;;;;2.55;1.50;;;;;;;;;;5011555;28;20042;-48
2021/10/03 12:11:13;;;;;;;4.00;1.95;;;;;;;;;;5011881;28;20582;-44
2021/10/03 12:13:40;;;;;;;2.35;1.50;;;;;;;;;;5010908;28;20591;-47
2021/10/03 12:16:17;;;;;;;3.97;2.10;;;;;;;;;;5011681;28;20104;-48
2021/10/03 12:18:46;;;;;;;3.20;2.00;;;;;;;;;;5010430;28;20089;-49
2021/10/03 12:21:17;;;;;;;3.40;1.63;;;;;;;;;;5011789;28;20115;-46
2021/10/03 12:23:44;;;;;;;2.20;1.58;;;;;;;;;;5011073;28;20049;-46
2021/10/03 12:26:15;;;;;;;2.40;1.60;;;;;;;;;;5023798;28;20157;-48
2021/10/03 12:28:51;;;;;;;2.25;1.48;;;;;;;;;;5011253;28;20076;-49
2021/10/03 12:31:44;;;;;;;2.95;1.70;;;;;;;;;;5010217;28;20475;-48
2021/10/03 12:34:14;;;;;;;2.50;1.70;;;;;;;;;;5002387;28;20148;-51
2021/10/03 12:37:03;;;;;;;2.88;1.67;;;;;;;;;;5011330;28;20499;-47
2021/10/03 12:39:31;;;;;;;2.60;1.50;;;;;;;;;;5011213;28;20418;-49
2021/10/03 12:42:02;;;;;;;1.88;1.48;;;;;;;;;;5011285;28;20042;-47
2021/10/03 12:44:31;;;;;;;4.47;2.67;;;;;;;;;;5010803;28;20042;-48
2021/10/03 12:46:59;;;;;;;2.38;1.90;;;;;;;;;;5011301;28;20077;-47
2021/10/03 12:49:25;;;;;;;3.30;2.63;;;;;;;;;;5011262;28;20048;-48
2021/10/03 12:51:52;;;;;;;4.43;3.22;;;;;;;;;;5011266;28;20046;-49
2021/10/03 12:54:19;;;;;;;2.30;1.70;;;;;;;;;;5010478;28;20049;-48
2021/10/03 12:56:46;;;;;;;2.70;1.55;;;;;;;;;;5011551;28;20042;-49
2021/10/03 12:59:12;;;;;;;1.80;1.45;;;;;;;;;;5010585;28;20073;-47
2021/10/03 13:01:39;;;;;;;3.40;1.60;;;;;;;;;;5013269;28;20046;-48
2021/10/03 13:04:06;;;;;;;2.10;1.40;;;;;;;;;;5014823;28;20121;-48
2021/10/03 13:06:33;;;;;;;2.85;1.65;;;;;;;;;;5013735;28;20049;-49
2021/10/03 13:09:00;;;;;;;3.40;1.55;;;;;;;;;;5014587;28;20136;-48
2021/10/03 13:11:27;;;;;;;2.80;1.42;;;;;;;;;;5014552;28;20046;-50
2021/10/03 13:13:53;;;;;;;2.95;1.65;;;;;;;;;;5013923;28;20403;-48
2021/10/03 13:16:20;;;;;;;4.38;1.70;;;;;;;;;;5028290;28;20042;-47
2021/10/03 13:18:47;;;;;;;5.43;1.50;;;;;;;;;;5014505;28;20125;-48
2021/10/03 13:21:14;;;;;;;2.92;1.73;;;;;;;;;;5014834;28;20034;-47
2021/10/03 13:23:41;;;;;;;5.70;2.67;;;;;;;;;;5013696;28;20044;-46
2021/10/03 13:26:08;;;;;;;2.45;2.00;;;;;;;;;;5014422;28;20148;-48
2021/10/03 13:28:35;;;;;;;4.13;2.65;;;;;;;;;;5014216;28;20396;-47
2021/10/03 13:31:02;;;;;;;2.25;1.70;;;;;;;;;;5013935;28;20042;-46
2021/10/03 13:33:28;;;;;;;1.77;1.40;;;;;;;;;;5013653;28;20053;-45
2021/10/03 13:35:57;;;;;;;2.83;1.65;;;;;;;;;;5013915;28;20046;-44
2021/10/03 13:38:24;;;;;;;2.55;1.98;;;;;;;;;;5012932;28;20092;-45
2021/10/03 13:40:51;;;;;;;2.63;1.60;;;;;;;;;;5013995;28;20042;-47
2021/10/03 13:43:20;;;;;;;2.88;2.10;;;;;;;;;;5013394;28;20198;-47
2021/10/03 13:45:47;;;;;;;2.35;1.80;;;;;;;;;;5013917;28;20447;-46
2021/10/03 13:48:14;;;;;;;2.72;2.10;;;;;;;;;;5013665;28;20057;-47
2021/10/03 13:50:41;;;;;;;2.38;1.52;;;;;;;;;;5013740;28;20070;-45
2021/10/03 13:53:08;;;;;;;4.53;1.70;;;;;;;;;;5012054;28;20092;-44
2021/10/03 13:55:34;;;;;;;3.95;2.50;;;;;;;;;;5013793;28;20492;-46
2021/10/03 13:58:01;;;;;;;2.05;1.50;;;;;;;;;;5013544;28;20042;-45
2021/10/03 14:00:28;;;;;;;2.28;1.67;;;;;;;;;;5013400;28;20034;-45
2021/10/03 14:02:55;;;;;;;21.42;11.23;;;;;;;;;;5013558;28;20125;-47
2021/10/03 14:05:22;;;;;;;14.88;8.75;;;;;;;;;;5013028;28;20046;-46
2021/10/03 14:07:49;;;;;;;7.75;5.10;;;;;;;;;;5013617;28;20399;-45
2021/10/03 14:10:17;;;;;;;15.45;9.57;;;;;;;;;;5013297;28;20423;-47
2021/10/03 14:12:44;;;;;;;4.00;1.88;;;;;;;;;;5012453;28;20563;-45
2021/10/03 14:15:10;;;;;;;8.55;4.47;;;;;;;;;;5012666;28;20356;-45
2021/10/03 14:17:38;;;;;;;3.40;2.17;;;;;;;;;;5013302;28;20046;-46
2021/10/03 14:20:06;;;;;;;16.65;9.40;;;;;;;;;;5013347;28;20062;-47
2021/10/03 14:22:33;;;;;;;3.80;2.35;;;;;;;;;;5013319;28;20042;-45
2021/10/03 14:24:59;;;;;;;9.10;4.03;;;;;;;;;;5012338;28;20531;-48
2021/10/03 14:27:26;;;;;;;3.22;1.83;;;;;;;;;;5013034;28;20515;-45
2021/10/03 14:29:56;;;;;;;7.95;4.18;;;;;;;;;;5012989;28;20053;-44
2021/10/03 14:32:25;;;;;;;7.93;4.40;;;;;;;;;;5012927;28;20041;-46
2021/10/03 14:34:52;;;;;;;4.53;2.22;;;;;;;;;;5010564;28;20050;-48
2021/10/03 14:37:19;;;;;;;2.40;1.65;;;;;;;;;;5013172;28;20082;-48
2021/10/03 14:39:45;;;;;;;3.38;2.10;;;;;;;;;;5012818;28;20088;-45
2021/10/03 14:42:12;;;;;;;2.92;1.90;;;;;;;;;;5013132;28;20038;-44
2021/10/03 14:44:42;;;;;;;2.45;1.65;;;;;;;;;;5012468;28;20046;-48
2021/10/03 14:47:09;;;;;;;5.70;2.60;;;;;;;;;;5012964;28;20410;-46
2021/10/03 14:49:36;;;;;;;47.78;31.88;;;;;;;;;;5012959;28;20511;-45